Plevna, Missouri
Current Conditions -  °F | °C
As of 1:55 AM on Thursday 27 Nov 2014 (Local Time) from KIRK Reporting Station
Haze Haze  
Wind Chill: -6°   Ceiling: 900
Heat Index: -1°   Visibility: 5mi
Dew Point: -3°   Wind: 10mph
Humidity: 88%   Direction: 320°NW
Pressure: 30.36"   Gusts: NA
Location:  39.97°N, 92.09°W
Report Text: KIRK 270755Z AUTO 32009KT 5SM BR OVC009 M01/M03 A3036 RMK AO2 CIG 007V013 SLP295 T10111028
Loading
Personal Weather Stations






























Interactive Weather Map New forecast layout! Learn more

10-Day Weather Forecast

Advertisements
Track Severe Weather on mobile